sensor_id;sensor_type;location;lat;lon;timestamp;temperature;humidity
13231;DHT22;6681;53.254;10.398;2023-07-13T00:01:46;18.60;1.00
13231;DHT22;6681;53.254;10.398;2023-07-13T00:04:16;18.60;1.00
13231;DHT22;6681;53.254;10.398;2023-07-13T00:06:42;18.60;1.00
13231;DHT22;6681;53.254;10.398;2023-07-13T00:09:11;18.70;1.00
13231;DHT22;6681;53.254;10.398;2023-07-13T00:11:38;18.70;1.00
13231;DHT22;6681;53.254;10.398;2023-07-13T00:14:03;18.60;1.00
13231;DHT22;6681;53.254;10.398;2023-07-13T00:16:29;18.50;1.00
13231;DHT22;6681;53.254;10.398;2023-07-13T00:18:55;18.50;1.00
13231;DHT22;6681;53.254;10.398;2023-07-13T00:21:20;18.50;1.00
13231;DHT22;6681;53.254;10.398;2023-07-13T00:23:46;18.50;1.00
13231;DHT22;6681;53.254;10.398;2023-07-13T00:26:12;18.60;1.00
13231;DHT22;6681;53.254;10.398;2023-07-13T00:28:38;18.60;1.00
13231;DHT22;6681;53.254;10.398;2023-07-13T00:31:05;18.60;1.00
13231;DHT22;6681;53.254;10.398;2023-07-13T00:33:31;18.60;1.00
13231;DHT22;6681;53.254;10.398;2023-07-13T00:35:56;18.60;1.00
13231;DHT22;6681;53.254;10.398;2023-07-13T00:38:23;18.50;1.00
13231;DHT22;6681;53.254;10.398;2023-07-13T00:40:49;18.50;1.00
13231;DHT22;6681;53.254;10.398;2023-07-13T00:43:17;18.50;1.00
13231;DHT22;6681;53.254;10.398;2023-07-13T00:48:10;18.50;1.00
13231;DHT22;6681;53.254;10.398;2023-07-13T00:50:37;18.50;1.00
13231;DHT22;6681;53.254;10.398;2023-07-13T00:53:03;18.50;1.00
13231;DHT22;6681;53.254;10.398;2023-07-13T00:55:29;18.60;1.00
13231;DHT22;6681;53.254;10.398;2023-07-13T00:57:55;18.60;1.00
13231;DHT22;6681;53.254;10.398;2023-07-13T01:00:22;18.60;1.00
13231;DHT22;6681;53.254;10.398;2023-07-13T01:02:48;18.50;1.00
13231;DHT22;6681;53.254;10.398;2023-07-13T01:05:20;18.50;1.00
13231;DHT22;6681;53.254;10.398;2023-07-13T01:07:48;18.50;1.00
13231;DHT22;6681;53.254;10.398;2023-07-13T01:10:14;18.50;1.00
13231;DHT22;6681;53.254;10.398;2023-07-13T01:12:40;18.50;1.00
13231;DHT22;6681;53.254;10.398;2023-07-13T01:15:40;18.50;1.00
13231;DHT22;6681;53.254;10.398;2023-07-13T01:18:19;18.50;1.00
13231;DHT22;6681;53.254;10.398;2023-07-13T01:23:17;18.40;1.00
13231;DHT22;6681;53.254;10.398;2023-07-13T01:25:43;18.40;1.00
13231;DHT22;6681;53.254;10.398;2023-07-13T01:28:09;18.40;1.00
13231;DHT22;6681;53.254;10.398;2023-07-13T01:30:36;18.40;1.00
13231;DHT22;6681;53.254;10.398;2023-07-13T01:33:06;18.40;1.00
13231;DHT22;6681;53.254;10.398;2023-07-13T01:35:33;18.40;1.00
13231;DHT22;6681;53.254;10.398;2023-07-13T01:37:58;18.40;1.00
13231;DHT22;6681;53.254;10.398;2023-07-13T01:40:27;18.40;1.00
13231;DHT22;6681;53.254;10.398;2023-07-13T01:42:53;18.30;1.00
13231;DHT22;6681;53.254;10.398;2023-07-13T01:45:18;18.30;1.00
13231;DHT22;6681;53.254;10.398;2023-07-13T01:47:44;18.20;1.00
13231;DHT22;6681;53.254;10.398;2023-07-13T01:50:10;18.10;1.00
13231;DHT22;6681;53.254;10.398;2023-07-13T01:52:35;18.10;1.00
13231;DHT22;6681;53.254;10.398;2023-07-13T01:55:01;18.10;1.00
13231;DHT22;6681;53.254;10.398;2023-07-13T01:57:27;18.00;1.00
13231;DHT22;6681;53.254;10.398;2023-07-13T01:59:53;18.00;1.00
13231;DHT22;6681;53.254;10.398;2023-07-13T02:02:19;17.90;1.00
13231;DHT22;6681;53.254;10.398;2023-07-13T02:04:45;17.90;1.00
13231;DHT22;6681;53.254;10.398;2023-07-13T02:07:10;17.90;1.00
13231;DHT22;6681;53.254;10.398;2023-07-13T02:09:36;17.90;1.00
13231;DHT22;6681;53.254;10.398;2023-07-13T02:12:02;17.90;1.00
13231;DHT22;6681;53.254;10.398;2023-07-13T02:14:28;17.90;1.00
13231;DHT22;6681;53.254;10.398;2023-07-13T02:16:54;17.90;1.00
13231;DHT22;6681;53.254;10.398;2023-07-13T02:19:20;17.80;1.00
13231;DHT22;6681;53.254;10.398;2023-07-13T02:21:45;17.80;1.00
13231;DHT22;6681;53.254;10.398;2023-07-13T02:24:11;19.10;1.00
13231;DHT22;6681;53.254;10.398;2023-07-13T02:26:45;17.80;1.00
13231;DHT22;6681;53.254;10.398;2023-07-13T02:29:11;17.80;1.00
13231;DHT22;6681;53.254;10.398;2023-07-13T02:31:37;17.80;1.00
13231;DHT22;6681;53.254;10.398;2023-07-13T02:34:03;17.80;1.00
13231;DHT22;6681;53.254;10.398;2023-07-13T02:36:30;17.80;1.00
13231;DHT22;6681;53.254;10.398;2023-07-13T02:39:00;17.80;1.00
13231;DHT22;6681;53.254;10.398;2023-07-13T02:41:26;17.80;1.00
13231;DHT22;6681;53.254;10.398;2023-07-13T02:43:52;17.80;1.00
13231;DHT22;6681;53.254;10.398;2023-07-13T02:46:17;17.80;1.00
13231;DHT22;6681;53.254;10.398;2023-07-13T02:48:45;17.80;1.00
13231;DHT22;6681;53.254;10.398;2023-07-13T02:51:11;17.70;1.00
13231;DHT22;6681;53.254;10.398;2023-07-13T02:53:37;17.70;1.00
13231;DHT22;6681;53.254;10.398;2023-07-13T02:56:03;17.60;1.00
13231;DHT22;6681;53.254;10.398;2023-07-13T02:58:29;17.70;1.00
13231;DHT22;6681;53.254;10.398;2023-07-13T03:00:55;17.70;1.00
13231;DHT22;6681;53.254;10.398;2023-07-13T03:03:21;17.60;1.00
13231;DHT22;6681;53.254;10.398;2023-07-13T03:05:46;17.60;1.00
13231;DHT22;6681;53.254;10.398;2023-07-13T03:08:16;17.60;1.00
13231;DHT22;6681;53.254;10.398;2023-07-13T03:10:41;17.50;1.00
13231;DHT22;6681;53.254;10.398;2023-07-13T03:13:07;17.50;1.00
13231;DHT22;6681;53.254;10.398;2023-07-13T03:15:32;17.40;1.00
13231;DHT22;6681;53.254;10.398;2023-07-13T03:17:58;17.30;1.00
13231;DHT22;6681;53.254;10.398;2023-07-13T03:20:24;17.20;1.00
13231;DHT22;6681;53.254;10.398;2023-07-13T03:22:49;17.10;1.00
13231;DHT22;6681;53.254;10.398;2023-07-13T03:25:15;17.10;1.00
13231;DHT22;6681;53.254;10.398;2023-07-13T03:27:41;17.00;1.00
13231;DHT22;6681;53.254;10.398;2023-07-13T03:30:07;17.00;1.00
13231;DHT22;6681;53.254;10.398;2023-07-13T03:32:33;17.00;1.00
13231;DHT22;6681;53.254;10.398;2023-07-13T03:34:58;17.00;1.00
13231;DHT22;6681;53.254;10.398;2023-07-13T03:37:24;17.00;1.00
13231;DHT22;6681;53.254;10.398;2023-07-13T03:39:50;17.00;1.00
13231;DHT22;6681;53.254;10.398;2023-07-13T03:42:16;17.00;1.00
13231;DHT22;6681;53.254;10.398;2023-07-13T03:44:42;17.00;1.00
13231;DHT22;6681;53.254;10.398;2023-07-13T03:47:11;17.10;1.00
13231;DHT22;6681;53.254;10.398;2023-07-13T03:49:37;17.00;1.00
13231;DHT22;6681;53.254;10.398;2023-07-13T03:52:03;17.00;1.00
13231;DHT22;6681;53.254;10.398;2023-07-13T03:54:28;17.00;1.00
13231;DHT22;6681;53.254;10.398;2023-07-13T03:56:54;16.90;1.00
13231;DHT22;6681;53.254;10.398;2023-07-13T03:59:20;16.70;1.00
13231;DHT22;6681;53.254;10.398;2023-07-13T04:01:46;16.70;1.00
13231;DHT22;6681;53.254;10.398;2023-07-13T04:04:12;16.60;1.00
13231;DHT22;6681;53.254;10.398;2023-07-13T04:06:37;16.60;1.00
13231;DHT22;6681;53.254;10.398;2023-07-13T04:09:04;16.70;1.00
13231;DHT22;6681;53.254;10.398;2023-07-13T04:11:32;16.80;1.00
13231;DHT22;6681;53.254;10.398;2023-07-13T04:13:58;16.90;1.00
13231;DHT22;6681;53.254;10.398;2023-07-13T04:16:24;16.90;1.00
13231;DHT22;6681;53.254;10.398;2023-07-13T04:18:51;16.90;1.00
13231;DHT22;6681;53.254;10.398;2023-07-13T04:21:20;16.90;1.00
13231;DHT22;6681;53.254;10.398;2023-07-13T04:23:46;16.90;1.00
13231;DHT22;6681;53.254;10.398;2023-07-13T04:26:12;16.90;1.00
13231;DHT22;6681;53.254;10.398;2023-07-13T04:28:37;17.00;1.00
13231;DHT22;6681;53.254;10.398;2023-07-13T04:31:03;17.00;1.00
13231;DHT22;6681;53.254;10.398;2023-07-13T04:33:29;17.00;1.00
13231;DHT22;6681;53.254;10.398;2023-07-13T04:35:56;17.00;1.00
13231;DHT22;6681;53.254;10.398;2023-07-13T04:38:28;17.00;1.00
13231;DHT22;6681;53.254;10.398;2023-07-13T04:40:59;17.10;1.00
13231;DHT22;6681;53.254;10.398;2023-07-13T04:43:26;17.10;1.00
13231;DHT22;6681;53.254;10.398;2023-07-13T04:45:52;17.00;1.00
13231;DHT22;6681;53.254;10.398;2023-07-13T04:48:19;17.00;1.00
13231;DHT22;6681;53.254;10.398;2023-07-13T04:50:45;16.90;1.00
13231;DHT22;6681;53.254;10.398;2023-07-13T04:53:11;16.80;1.00
13231;DHT22;6681;53.254;10.398;2023-07-13T04:55:37;16.70;1.00
13231;DHT22;6681;53.254;10.398;2023-07-13T04:58:03;16.70;1.00
13231;DHT22;6681;53.254;10.398;2023-07-13T05:00:29;16.70;1.00
13231;DHT22;6681;53.254;10.398;2023-07-13T05:02:56;16.60;1.00
13231;DHT22;6681;53.254;10.398;2023-07-13T05:05:23;16.60;1.00
13231;DHT22;6681;53.254;10.398;2023-07-13T05:07:49;16.50;1.00
13231;DHT22;6681;53.254;10.398;2023-07-13T05:10:15;16.50;1.00
13231;DHT22;6681;53.254;10.398;2023-07-13T05:12:41;16.60;1.00
13231;DHT22;6681;53.254;10.398;2023-07-13T05:15:06;16.60;1.00
13231;DHT22;6681;53.254;10.398;2023-07-13T05:17:32;16.60;1.00
13231;DHT22;6681;53.254;10.398;2023-07-13T05:19:58;16.60;1.00
13231;DHT22;6681;53.254;10.398;2023-07-13T05:22:24;16.70;1.00
13231;DHT22;6681;53.254;10.398;2023-07-13T05:24:49;16.70;1.00
13231;DHT22;6681;53.254;10.398;2023-07-13T05:27:15;16.80;1.00
13231;DHT22;6681;53.254;10.398;2023-07-13T05:29:41;16.80;1.00
13231;DHT22;6681;53.254;10.398;2023-07-13T05:32:07;16.90;1.00
13231;DHT22;6681;53.254;10.398;2023-07-13T05:34:32;16.90;1.00
13231;DHT22;6681;53.254;10.398;2023-07-13T05:36:59;16.90;1.00
13231;DHT22;6681;53.254;10.398;2023-07-13T05:39:25;17.00;1.00
13231;DHT22;6681;53.254;10.398;2023-07-13T05:41:53;17.00;1.00
13231;DHT22;6681;53.254;10.398;2023-07-13T05:44:18;17.10;1.00
13231;DHT22;6681;53.254;10.398;2023-07-13T05:46:44;17.10;1.00
13231;DHT22;6681;53.254;10.398;2023-07-13T05:49:10;17.10;1.00
13231;DHT22;6681;53.254;10.398;2023-07-13T05:51:36;17.20;1.00
13231;DHT22;6681;53.254;10.398;2023-07-13T05:54:02;18.40;1.00
13231;DHT22;6681;53.254;10.398;2023-07-13T05:56:28;17.20;1.00
13231;DHT22;6681;53.254;10.398;2023-07-13T05:58:54;17.20;1.00
13231;DHT22;6681;53.254;10.398;2023-07-13T06:01:20;17.30;1.00
13231;DHT22;6681;53.254;10.398;2023-07-13T06:03:46;17.30;1.00
13231;DHT22;6681;53.254;10.398;2023-07-13T06:06:13;17.40;1.00
13231;DHT22;6681;53.254;10.398;2023-07-13T06:08:39;17.50;1.00
13231;DHT22;6681;53.254;10.398;2023-07-13T06:11:12;17.50;1.00
13231;DHT22;6681;53.254;10.398;2023-07-13T06:13:39;17.60;1.00
13231;DHT22;6681;53.254;10.398;2023-07-13T06:16:05;17.60;1.00
13231;DHT22;6681;53.254;10.398;2023-07-13T06:18:35;17.70;1.00
13231;DHT22;6681;53.254;10.398;2023-07-13T06:21:09;17.80;1.00
13231;DHT22;6681;53.254;10.398;2023-07-13T06:23:35;17.80;1.00
13231;DHT22;6681;53.254;10.398;2023-07-13T06:26:02;17.90;1.00
13231;DHT22;6681;53.254;10.398;2023-07-13T06:28:28;17.90;1.00
13231;DHT22;6681;53.254;10.398;2023-07-13T06:30:54;17.90;1.00
13231;DHT22;6681;53.254;10.398;2023-07-13T06:33:20;18.00;1.00
13231;DHT22;6681;53.254;10.398;2023-07-13T06:35:45;18.00;1.00
13231;DHT22;6681;53.254;10.398;2023-07-13T06:38:11;18.00;1.00
13231;DHT22;6681;53.254;10.398;2023-07-13T06:40:36;18.10;1.00
13231;DHT22;6681;53.254;10.398;2023-07-13T06:43:02;18.10;1.00
13231;DHT22;6681;53.254;10.398;2023-07-13T06:45:27;18.20;1.00
13231;DHT22;6681;53.254;10.398;2023-07-13T06:47:53;18.30;1.00
13231;DHT22;6681;53.254;10.398;2023-07-13T06:50:19;18.30;1.00
13231;DHT22;6681;53.254;10.398;2023-07-13T06:52:44;18.30;1.00
13231;DHT22;6681;53.254;10.398;2023-07-13T06:55:10;18.40;1.00
13231;DHT22;6681;53.254;10.398;2023-07-13T06:57:36;18.50;1.00
13231;DHT22;6681;53.254;10.398;2023-07-13T07:00:01;18.50;1.00
13231;DHT22;6681;53.254;10.398;2023-07-13T07:02:27;18.60;1.00
13231;DHT22;6681;53.254;10.398;2023-07-13T07:04:53;18.60;1.00
13231;DHT22;6681;53.254;10.398;2023-07-13T07:07:19;18.70;1.00
13231;DHT22;6681;53.254;10.398;2023-07-13T07:09:45;18.80;1.00
13231;DHT22;6681;53.254;10.398;2023-07-13T07:12:10;18.80;1.00
13231;DHT22;6681;53.254;10.398;2023-07-13T07:14:36;18.80;1.00
13231;DHT22;6681;53.254;10.398;2023-07-13T07:17:02;18.90;1.00
13231;DHT22;6681;53.254;10.398;2023-07-13T07:19:29;18.90;1.00
13231;DHT22;6681;53.254;10.398;2023-07-13T07:21:55;19.00;1.00
13231;DHT22;6681;53.254;10.398;2023-07-13T07:24:21;19.00;1.00
13231;DHT22;6681;53.254;10.398;2023-07-13T07:26:47;19.00;1.00
13231;DHT22;6681;53.254;10.398;2023-07-13T07:29:12;19.10;1.00
13231;DHT22;6681;53.254;10.398;2023-07-13T07:31:38;19.20;1.00
13231;DHT22;6681;53.254;10.398;2023-07-13T07:34:03;19.20;1.00
13231;DHT22;6681;53.254;10.398;2023-07-13T07:36:29;19.20;1.00
13231;DHT22;6681;53.254;10.398;2023-07-13T07:38:55;19.30;1.00
13231;DHT22;6681;53.254;10.398;2023-07-13T07:41:20;19.30;1.00
13231;DHT22;6681;53.254;10.398;2023-07-13T07:43:46;19.40;1.00
13231;DHT22;6681;53.254;10.398;2023-07-13T07:46:12;19.40;1.00
13231;DHT22;6681;53.254;10.398;2023-07-13T07:48:38;19.50;1.00
13231;DHT22;6681;53.254;10.398;2023-07-13T07:51:03;19.60;1.00
13231;DHT22;6681;53.254;10.398;2023-07-13T07:53:30;19.70;1.00
13231;DHT22;6681;53.254;10.398;2023-07-13T07:55:55;19.70;1.00
13231;DHT22;6681;53.254;10.398;2023-07-13T07:58:21;19.60;1.00
13231;DHT22;6681;53.254;10.398;2023-07-13T08:00:47;19.60;1.00
13231;DHT22;6681;53.254;10.398;2023-07-13T08:03:12;19.60;1.00
13231;DHT22;6681;53.254;10.398;2023-07-13T08:05:38;19.60;1.00
13231;DHT22;6681;53.254;10.398;2023-07-13T08:08:04;19.90;1.00
13231;DHT22;6681;53.254;10.398;2023-07-13T08:10:30;19.80;1.00
13231;DHT22;6681;53.254;10.398;2023-07-13T08:12:55;20.00;1.00
13231;DHT22;6681;53.254;10.398;2023-07-13T08:15:21;20.10;1.00
13231;DHT22;6681;53.254;10.398;2023-07-13T08:17:48;20.10;1.00
13231;DHT22;6681;53.254;10.398;2023-07-13T08:20:14;20.20;1.00
13231;DHT22;6681;53.254;10.398;2023-07-13T08:22:40;20.20;1.00
13231;DHT22;6681;53.254;10.398;2023-07-13T08:25:06;20.20;1.00
13231;DHT22;6681;53.254;10.398;2023-07-13T08:27:32;20.30;1.00
13231;DHT22;6681;53.254;10.398;2023-07-13T08:29:58;20.30;1.00
13231;DHT22;6681;53.254;10.398;2023-07-13T08:32:24;20.40;99.90
13231;DHT22;6681;53.254;10.398;2023-07-13T08:34:49;20.50;99.90
13231;DHT22;6681;53.254;10.398;2023-07-13T08:37:16;20.50;99.90
13231;DHT22;6681;53.254;10.398;2023-07-13T08:39:42;20.50;99.90
13231;DHT22;6681;53.254;10.398;2023-07-13T08:42:31;20.50;99.90
13231;DHT22;6681;53.254;10.398;2023-07-13T08:47:41;20.50;99.90
13231;DHT22;6681;53.254;10.398;2023-07-13T08:50:12;20.60;99.90
13231;DHT22;6681;53.254;10.398;2023-07-13T08:52:41;20.60;99.90
13231;DHT22;6681;53.254;10.398;2023-07-13T08:55:29;20.50;1.00
13231;DHT22;6681;53.254;10.398;2023-07-13T08:58:14;20.60;99.90
13231;DHT22;6681;53.254;10.398;2023-07-13T09:03:33;20.60;17.10
13231;DHT22;6681;53.254;10.398;2023-07-13T09:06:02;20.70;99.90
13231;DHT22;6681;53.254;10.398;2023-07-13T09:14:41;21.20;1.00
13231;DHT22;6681;53.254;10.398;2023-07-13T09:17:20;21.20;99.90
13231;DHT22;6681;53.254;10.398;2023-07-13T09:19:53;21.20;1.00
13231;DHT22;6681;53.254;10.398;2023-07-13T09:22:22;21.20;1.00
13231;DHT22;6681;53.254;10.398;2023-07-13T09:25:04;21.20;85.00
13231;DHT22;6681;53.254;10.398;2023-07-13T09:27:38;21.20;1.00
13231;DHT22;6681;53.254;10.398;2023-07-13T09:32:41;21.40;99.90
13231;DHT22;6681;53.254;10.398;2023-07-13T09:35:12;21.30;1.00
13231;DHT22;6681;53.254;10.398;2023-07-13T09:37:42;21.30;99.90
13231;DHT22;6681;53.254;10.398;2023-07-13T09:40:34;21.30;1.00
13231;DHT22;6681;53.254;10.398;2023-07-13T09:43:01;21.50;1.00
13231;DHT22;6681;53.254;10.398;2023-07-13T09:45:32;21.60;99.90
13231;DHT22;6681;53.254;10.398;2023-07-13T09:48:03;21.70;1.00
13231;DHT22;6681;53.254;10.398;2023-07-13T09:50:29;21.80;1.00
13231;DHT22;6681;53.254;10.398;2023-07-13T09:52:55;21.80;1.00
13231;DHT22;6681;53.254;10.398;2023-07-13T09:57:49;21.60;99.90
13231;DHT22;6681;53.254;10.398;2023-07-13T10:00:29;21.30;1.00
13231;DHT22;6681;53.254;10.398;2023-07-13T10:05:25;21.00;99.90
13231;DHT22;6681;53.254;10.398;2023-07-13T10:07:51;20.90;1.00
13231;DHT22;6681;53.254;10.398;2023-07-13T10:10:21;20.90;99.90
13231;DHT22;6681;53.254;10.398;2023-07-13T10:12:48;20.90;1.00
13231;DHT22;6681;53.254;10.398;2023-07-13T10:15:23;21.00;1.00
13231;DHT22;6681;53.254;10.398;2023-07-13T10:17:52;21.10;1.00
13231;DHT22;6681;53.254;10.398;2023-07-13T10:20:18;21.30;99.90
13231;DHT22;6681;53.254;10.398;2023-07-13T10:22:52;21.40;99.90
13231;DHT22;6681;53.254;10.398;2023-07-13T10:25:26;21.60;99.90
13231;DHT22;6681;53.254;10.398;2023-07-13T10:27:56;21.80;1.00
13231;DHT22;6681;53.254;10.398;2023-07-13T10:30:27;22.00;99.90
13231;DHT22;6681;53.254;10.398;2023-07-13T10:32:58;22.10;1.00
13231;DHT22;6681;53.254;10.398;2023-07-13T10:35:26;22.30;64.00
13231;DHT22;6681;53.254;10.398;2023-07-13T10:38:10;22.50;1.00
13231;DHT22;6681;53.254;10.398;2023-07-13T10:40:37;22.60;1.00
13231;DHT22;6681;53.254;10.398;2023-07-13T10:43:16;22.70;99.90
13231;DHT22;6681;53.254;10.398;2023-07-13T10:45:45;22.90;99.90
13231;DHT22;6681;53.254;10.398;2023-07-13T10:48:13;23.10;1.00
13231;DHT22;6681;53.254;10.398;2023-07-13T10:50:43;23.10;1.00
13231;DHT22;6681;53.254;10.398;2023-07-13T10:53:30;23.10;1.00
13231;DHT22;6681;53.254;10.398;2023-07-13T10:58:39;23.30;99.90
13231;DHT22;6681;53.254;10.398;2023-07-13T11:01:18;23.50;99.90
13231;DHT22;6681;53.254;10.398;2023-07-13T11:03:49;23.50;99.90
13231;DHT22;6681;53.254;10.398;2023-07-13T11:06:42;23.50;1.00
13231;DHT22;6681;53.254;10.398;2023-07-13T11:12:07;23.50;99.90
13231;DHT22;6681;53.254;10.398;2023-07-13T11:14:37;23.50;1.00
13231;DHT22;6681;53.254;10.398;2023-07-13T11:25:39;23.30;99.90
13231;DHT22;6681;53.254;10.398;2023-07-13T11:33:23;23.90;99.90
13231;DHT22;6681;53.254;10.398;2023-07-13T11:41:12;24.40;99.90
13231;DHT22;6681;53.254;10.398;2023-07-13T11:43:40;24.50;1.00
13231;DHT22;6681;53.254;10.398;2023-07-13T11:46:22;24.50;99.90
13231;DHT22;6681;53.254;10.398;2023-07-13T11:48:49;24.50;99.90
13231;DHT22;6681;53.254;10.398;2023-07-13T11:51:36;24.50;1.00
13231;DHT22;6681;53.254;10.398;2023-07-13T11:54:20;24.70;99.90
13231;DHT22;6681;53.254;10.398;2023-07-13T11:56:46;24.80;1.00
13231;DHT22;6681;53.254;10.398;2023-07-13T11:59:14;24.80;1.00
13231;DHT22;6681;53.254;10.398;2023-07-13T12:01:49;24.90;69.70
13231;DHT22;6681;53.254;10.398;2023-07-13T12:04:32;25.00;1.00
13231;DHT22;6681;53.254;10.398;2023-07-13T12:07:07;23.10;1.00
13231;DHT22;6681;53.254;10.398;2023-07-13T12:09:34;25.10;99.90
13231;DHT22;6681;53.254;10.398;2023-07-13T12:12:02;25.30;1.00
13231;DHT22;6681;53.254;10.398;2023-07-13T12:14:28;25.40;26.00
13231;DHT22;6681;53.254;10.398;2023-07-13T12:16:54;25.40;99.90
13231;DHT22;6681;53.254;10.398;2023-07-13T12:19:26;25.40;99.90
13231;DHT22;6681;53.254;10.398;2023-07-13T12:21:56;25.40;99.90
13231;DHT22;6681;53.254;10.398;2023-07-13T12:24:23;25.30;1.00
13231;DHT22;6681;53.254;10.398;2023-07-13T12:27:18;25.10;99.90
13231;DHT22;6681;53.254;10.398;2023-07-13T12:29:57;24.80;1.00
13231;DHT22;6681;53.254;10.398;2023-07-13T12:32:24;24.70;1.00
13231;DHT22;6681;53.254;10.398;2023-07-13T12:35:14;24.50;1.00
13231;DHT22;6681;53.254;10.398;2023-07-13T12:37:42;24.30;1.00
13231;DHT22;6681;53.254;10.398;2023-07-13T12:40:19;24.20;99.90
13231;DHT22;6681;53.254;10.398;2023-07-13T12:42:48;24.10;1.00
13231;DHT22;6681;53.254;10.398;2023-07-13T12:45:26;24.10;1.00
13231;DHT22;6681;53.254;10.398;2023-07-13T12:47:56;24.20;1.00
13231;DHT22;6681;53.254;10.398;2023-07-13T12:50:31;24.30;1.00
13231;DHT22;6681;53.254;10.398;2023-07-13T12:53:05;24.10;58.90
13231;DHT22;6681;53.254;10.398;2023-07-13T12:55:44;24.00;99.90
13231;DHT22;6681;53.254;10.398;2023-07-13T12:58:37;23.90;99.90
13231;DHT22;6681;53.254;10.398;2023-07-13T13:01:04;23.80;99.90
13231;DHT22;6681;53.254;10.398;2023-07-13T13:03:37;23.40;1.00
13231;DHT22;6681;53.254;10.398;2023-07-13T13:06:06;22.80;99.90
13231;DHT22;6681;53.254;10.398;2023-07-13T13:08:34;22.30;1.00
13231;DHT22;6681;53.254;10.398;2023-07-13T13:11:01;22.20;31.90
13231;DHT22;6681;53.254;10.398;2023-07-13T13:13:27;21.90;99.90
13231;DHT22;6681;53.254;10.398;2023-07-13T13:15:52;21.60;99.90
13231;DHT22;6681;53.254;10.398;2023-07-13T13:18:21;21.30;99.90
13231;DHT22;6681;53.254;10.398;2023-07-13T13:20:47;21.10;1.00
13231;DHT22;6681;53.254;10.398;2023-07-13T13:23:18;20.50;99.90
13231;DHT22;6681;53.254;10.398;2023-07-13T13:25:46;20.00;1.00
13231;DHT22;6681;53.254;10.398;2023-07-13T13:28:16;20.10;1.00
13231;DHT22;6681;53.254;10.398;2023-07-13T13:30:44;20.30;1.00
13231;DHT22;6681;53.254;10.398;2023-07-13T13:33:12;20.40;1.00
13231;DHT22;6681;53.254;10.398;2023-07-13T13:35:39;20.50;1.00
13231;DHT22;6681;53.254;10.398;2023-07-13T13:40:37;20.40;1.00
13231;DHT22;6681;53.254;10.398;2023-07-13T13:43:09;20.50;1.00
13231;DHT22;6681;53.254;10.398;2023-07-13T13:45:39;20.50;1.00
13231;DHT22;6681;53.254;10.398;2023-07-13T13:48:05;20.60;1.00
13231;DHT22;6681;53.254;10.398;2023-07-13T13:50:31;20.80;1.00
13231;DHT22;6681;53.254;10.398;2023-07-13T13:52:56;20.70;1.00
13231;DHT22;6681;53.254;10.398;2023-07-13T13:55:22;20.80;1.00
13231;DHT22;6681;53.254;10.398;2023-07-13T13:57:49;20.90;1.00
13231;DHT22;6681;53.254;10.398;2023-07-13T14:00:16;20.90;1.00
13231;DHT22;6681;53.254;10.398;2023-07-13T14:02:45;18.80;1.00
13231;DHT22;6681;53.254;10.398;2023-07-13T14:05:21;21.00;1.00
13231;DHT22;6681;53.254;10.398;2023-07-13T14:07:47;21.00;1.00
13231;DHT22;6681;53.254;10.398;2023-07-13T14:10:17;21.00;1.00
13231;DHT22;6681;53.254;10.398;2023-07-13T14:12:45;20.90;1.00
13231;DHT22;6681;53.254;10.398;2023-07-13T14:15:22;20.90;1.00
13231;DHT22;6681;53.254;10.398;2023-07-13T14:17:48;21.00;1.00
13231;DHT22;6681;53.254;10.398;2023-07-13T14:20:16;21.00;1.00
13231;DHT22;6681;53.254;10.398;2023-07-13T14:22:42;22.20;1.00
13231;DHT22;6681;53.254;10.398;2023-07-13T14:25:15;21.30;1.00
13231;DHT22;6681;53.254;10.398;2023-07-13T14:27:43;21.30;1.00
13231;DHT22;6681;53.254;10.398;2023-07-13T14:30:20;21.20;1.00
13231;DHT22;6681;53.254;10.398;2023-07-13T14:32:47;21.20;1.00
13231;DHT22;6681;53.254;10.398;2023-07-13T14:35:15;21.20;1.00
13231;DHT22;6681;53.254;10.398;2023-07-13T14:37:41;21.10;1.00
13231;DHT22;6681;53.254;10.398;2023-07-13T14:40:17;21.10;1.00
13231;DHT22;6681;53.254;10.398;2023-07-13T14:42:43;21.10;1.00
13231;DHT22;6681;53.254;10.398;2023-07-13T14:45:17;21.00;1.00
13231;DHT22;6681;53.254;10.398;2023-07-13T14:47:43;20.80;1.00
13231;DHT22;6681;53.254;10.398;2023-07-13T14:50:18;20.60;1.00
13231;DHT22;6681;53.254;10.398;2023-07-13T14:52:44;20.50;1.00
13231;DHT22;6681;53.254;10.398;2023-07-13T14:55:17;20.50;1.00
13231;DHT22;6681;53.254;10.398;2023-07-13T14:57:43;20.60;1.00
13231;DHT22;6681;53.254;10.398;2023-07-13T15:00:21;20.60;1.00
13231;DHT22;6681;53.254;10.398;2023-07-13T15:02:52;20.70;1.00
13231;DHT22;6681;53.254;10.398;2023-07-13T15:05:24;20.50;1.00
13231;DHT22;6681;53.254;10.398;2023-07-13T15:07:52;20.50;1.00
13231;DHT22;6681;53.254;10.398;2023-07-13T15:10:26;20.40;1.00
13231;DHT22;6681;53.254;10.398;2023-07-13T15:12:52;20.20;1.00
13231;DHT22;6681;53.254;10.398;2023-07-13T15:15:18;20.20;1.00
13231;DHT22;6681;53.254;10.398;2023-07-13T15:17:46;20.20;1.00
13231;DHT22;6681;53.254;10.398;2023-07-13T15:22:48;20.30;1.00
13231;DHT22;6681;53.254;10.398;2023-07-13T15:25:18;20.30;1.00
13231;DHT22;6681;53.254;10.398;2023-07-13T15:27:45;20.40;1.00
13231;DHT22;6681;53.254;10.398;2023-07-13T15:30:11;20.40;1.00
13231;DHT22;6681;53.254;10.398;2023-07-13T15:32:37;20.40;1.00
13231;DHT22;6681;53.254;10.398;2023-07-13T15:35:05;20.40;1.00
13231;DHT22;6681;53.254;10.398;2023-07-13T15:37:30;20.40;1.00
13231;DHT22;6681;53.254;10.398;2023-07-13T15:39:56;20.50;1.00
13231;DHT22;6681;53.254;10.398;2023-07-13T15:42:23;20.50;1.00
13231;DHT22;6681;53.254;10.398;2023-07-13T15:44:48;20.60;1.00
13231;DHT22;6681;53.254;10.398;2023-07-13T15:47:15;20.60;1.00
13231;DHT22;6681;53.254;10.398;2023-07-13T15:49:42;20.70;1.00
13231;DHT22;6681;53.254;10.398;2023-07-13T15:52:23;20.70;1.00
13231;DHT22;6681;53.254;10.398;2023-07-13T15:54:49;20.90;1.00
13231;DHT22;6681;53.254;10.398;2023-07-13T15:57:16;21.00;1.00
13231;DHT22;6681;53.254;10.398;2023-07-13T15:59:42;21.00;99.90
13231;DHT22;6681;53.254;10.398;2023-07-13T16:02:19;21.10;1.00
13231;DHT22;6681;53.254;10.398;2023-07-13T16:04:46;21.20;1.00
13231;DHT22;6681;53.254;10.398;2023-07-13T16:07:14;21.40;1.00
13231;DHT22;6681;53.254;10.398;2023-07-13T16:09:43;21.60;1.00
13231;DHT22;6681;53.254;10.398;2023-07-13T16:12:13;21.70;1.00
13231;DHT22;6681;53.254;10.398;2023-07-13T16:14:40;21.80;1.00
13231;DHT22;6681;53.254;10.398;2023-07-13T16:17:10;22.00;1.00
13231;DHT22;6681;53.254;10.398;2023-07-13T16:19:36;22.10;1.00
13231;DHT22;6681;53.254;10.398;2023-07-13T16:22:03;22.20;99.90
13231;DHT22;6681;53.254;10.398;2023-07-13T16:24:31;22.40;99.90
13231;DHT22;6681;53.254;10.398;2023-07-13T16:26:57;22.30;1.00
13231;DHT22;6681;53.254;10.398;2023-07-13T16:29:26;22.40;99.90
13231;DHT22;6681;53.254;10.398;2023-07-13T16:32:00;22.50;10.10
13231;DHT22;6681;53.254;10.398;2023-07-13T16:34:30;22.50;1.00
13231;DHT22;6681;53.254;10.398;2023-07-13T16:36:56;22.50;99.90
13231;DHT22;6681;53.254;10.398;2023-07-13T16:39:23;22.50;1.00
13231;DHT22;6681;53.254;10.398;2023-07-13T16:41:54;22.60;99.90
13231;DHT22;6681;53.254;10.398;2023-07-13T16:44:21;22.80;99.90